Syracuse, New York
Current Conditions -  °F | °C
As of 12:30 PM on Thursday 18 Dec 2014 (Local Time) from KSYR Reporting Station
Light Snow Light Snow  
Wind Chill: 22°   Ceiling: 1400
Heat Index: 32°   Visibility: 2mi
Dew Point: 29°   Wind: 14mph
Humidity: 88%   Direction: 290°WNW
Pressure: 29.99"   Gusts: NA
Location:  43.05°N, 76.15°W
Report Text: KSYR 181730Z 29012KT 2SM -SN BR BKN014 OVC019 00/M02 A2999 RMK AO2 SNE1659B07 P0000 T00001017
Loading
Personal Weather Stations






























Interactive Weather Map New forecast layout! Learn more

10-Day Weather Forecast

Advertisements
Track Severe Weather on mobile